Terminal Aerodrome Forecast
Issued by NWS

Home | Current Version | Previous Version | Text Only | Print | Product List | Glossary On
Versions: 1 2 3 4 5 6 7 8 9 10 11 12 13 14 15 16 17 18 19 20
000
FTUS44 KSJT 291126
TAFJCT
TAF
KJCT 291126Z 2912/3012 VRB03KT P6SM SCT015
      TEMPO 2912/2914 BKN015
     FM291500 16008KT P6SM SCT080
     FM300100 VRB06KT P6SM FEW250=

USA.gov is the U.S. government's official web portal to all federal, state and local government web resources and services.